Hugo Giraldo

Jefe de ojeadores - Independiente Medellin
6 Ene 2028
Jueves
Continuar

Personalidad

Adaptabilidad (19) Ambición (13) Controversia (15) Lealtad (10) Presión (5) Profesionalismo (7) Deportividad (4) Temperamento (15)

Perfil

Estilo de dirección Democrático
Licencia Continental B
Determinación 9
Gestión de personas 6
Motivación 10
Disciplina 11
Satisfacción laboral
100%
Fatiga
0%
Cargo Jefe de ojeadores
Salario 96.9K p/s
Contrato 14.03.2028

Rendimiento

Comportamiento Bueno
Efectividad del entrenamiento
31%
Desarrollo de jugadores
65%
Prevención de lesiones
20%
Implementación táctica
40%

Eventos recientes

Recomendó un objetivo de fichaje ahora
Recomendó un objetivo de fichaje ahora
Recomendó un objetivo de fichaje ahora
Recomendó un objetivo de fichaje ahora
Recomendó un objetivo de fichaje ahora
Recomendó un objetivo de fichaje ahora
Recomendó un objetivo de fichaje ahora
Negociación de contrato iniciada ahora

Actualmente siguiendo

280
Jugador Club Estado Habilidad Confianza Observado Última observación Último voto
Santiago González Tigre Activo 127 / 131 40% 1 04.01.2028 -
Tomás Silva Platense Activo 130 / 132 40% 1 04.01.2028 -
Ralph Orquin Seattle Sounders Activo 130 / 124 40% 1 04.01.2028 -
Juan Saborido Platense Activo 131 / 119 40% 1 03.01.2028 -
José Ángel Carmona Sevilla Activo 159 / 165 40% 1 03.01.2028 -
Ilaix Moriba Celta Activo 156 / 155 40% 1 03.01.2028 -
Keimer Sandoval Deportivo Cali Activo 104 / 95 79% 1 27.12.2027 Aprobar
Luis Palacios Tigres Activo 108 / 101 79% 1 20.12.2027 Aprobar
Santiago Guzmán Millonarios Informe listo 104 / 118 79% 1 02.12.2027 Aprobar
José Paradela Tigres Activo 137 / 137 66% 1 01.12.2027 Aprobar
Mao Hosoya Everton Negociando 134 / 135 67% 1 01.12.2027 Aprobar
Manuel Ospina Cortulua Activo 132 / 138 40% 2 30.11.2027 -
Ez Abde Girona Activo 162 / 141 40% 1 30.11.2027 -
Brennan Johnson Stoke City Activo 154 / 137 40% 1 30.11.2027 -
Diego Martínez Jaguares Activo 124 / 124 44% 2 / 2m 21.07.2027 -
Kevin Tamayo Leones Activo 119 / 120 79% 1 28.06.2027 Aprobar
Kwadwo Baah Watford Activo 134 / 141 40% 2 26.06.2027 -
Marcus Edwards Burnley Activo 141 / 132 40% 2 26.06.2027 -
Guille Rosas Gijón Activo 147 / 141 40% 1 26.06.2027 -
Riley McGree Middlesbrough Activo 135 / 142 40% 2 22.06.2027 -
Mohamed-Ali Cho Hull City Activo 141 / 129 40% 2 22.06.2027 -
Andre Brooks Sheffield United Activo 133 / 132 40% 1 22.06.2027 -
Luis Vázquez Birmingham Activo 129 / 117 40% 1 15.06.2027 -
Nicolò Zaniolo Udinese Activo 144 / 155 40% 1 15.06.2027 -
Murphy Cooper Plymouth Argyle Activo 123 / 123 40% 1 08.06.2027 -
Facundo Torres LOSC Lille Activo 134 / 134 67% 1 01.06.2027 Aprobar
Bitello SC Freiburg Activo 135 / 135 68% 1 01.06.2027 Aprobar
Kostantis Tzolakis Hull City Activo 149 / 142 40% 7 29.05.2027 -
Michele Cerofolini Bari Activo 122 / 132 40% 4 29.05.2027 -
Maduka Okoye Udinese Activo 144 / 154 40% 1 29.05.2027 -
Christian Walton Ipswich Town Activo 132 / 141 40% 4 28.05.2027 -
Jonathan Klinsmann Cesena Activo 122 / 113 40% 2 28.05.2027 -
Robin Roefs Sunderland Activo 140 / 154 40% 2 27.05.2027 -
Lucas Bruera Carabobo Activo 120 / 122 40% 1 27.05.2027 -
Arijanet Murić Sassuolo Activo 137 / 132 40% 3 26.05.2027 -
Balázs Tóth Blackburn Rovers Activo 127 / 117 40% 3 26.05.2027 -
Luis Ingolotti Atlético Tucumán Activo 124 / 125 40% 1 26.05.2027 -
Mauro Silveira Junior Activo 124 / 128 40% 1 25.05.2027 -
Bento Al-Nassr Activo 139 / 130 40% 5 24.05.2027 -
Lorenzo Palmisani Frosinone Activo 130 / 122 40% 4 24.05.2027 -
Caoimhin Kelleher Brentford Activo 156 / 151 40% 4 23.05.2027 -
Mads Hermansen West Ham United Activo 138 / 139 40% 3 23.05.2027 -
Diego Romero Universitario Activo 129 / 134 40% 1 23.05.2027 -
Tomáš Frühwald Bohemians 1905 Activo 109 / 116 40% 1 23.05.2027 -
Nikola Vasilj Al-Diriyah Activo 141 / 137 40% 2 20.05.2027 -
Jean America de Cali Activo 127 / 120 40% 1 20.05.2027 -
Simone Scuffet Pisa Activo 124 / 140 40% 3 18.05.2027 -
Daniel Iversen Preston Activo 123 / 134 40% 3 16.05.2027 -
Ezequiel Centurión River Plate Activo 128 / 121 40% 1 16.05.2027 -
Tomás Marchiori Vélez Activo 127 / 129 40% 2 15.05.2027 -
Edoardo Motta Lazio Activo 127 / 133 40% 1 15.05.2027 -
Justin Bijlow Genoa Activo 155 / 157 40% 3 13.05.2027 -
Facundo Cambeses Racing Club Activo 128 / 124 40% 1 12.05.2027 -
Grégoire Coudert Burnley Activo 131 / 117 40% 1 11.05.2027 -
Amine Adli Bournemouth Activo 145 / 156 40% 5 10.05.2027 Observar
Jacob Widell Zetterström Derby County Activo 134 / 124 40% 1 10.05.2027 -
Iván Arboleda Sarmiento Activo 127 / 121 40% 1 10.05.2027 -
Derensili Sanches Fernandes Huddersfield Town Activo 125 / 129 40% 6 06.05.2027 -
Welington Southampton Activo 132 / 115 40% 4 06.05.2027 -
Lewis Morgan SuperSport United Activo 128 / 124 40% 11 05.05.2027 -
Giorgi Chakvetadze Watford Activo 122 / 117 40% 2 05.05.2027 -
Hílder Arboleda Union Magdalena Activo 86 / 89 30% 1 / 1m 05.05.2027 -
Harry Wilson Leeds United Activo 139 / 130 40% 4 04.05.2027 -
David Turnbull Cardiff City Activo 122 / 133 40% 1 03.05.2027 -
Ryoya Morishita Blackburn Rovers Activo 132 / 117 40% 4 02.05.2027 -
Aaron Collins Milton Keynes Dons Activo 120 / 124 40% 1 02.05.2027 -
Morgan Whittaker Middlesbrough Activo 134 / 132 40% 1 02.05.2027 -
Kerem Aktürkoğlu Fenerbahce Activo 144 / 130 40% 3 30.04.2027 -
Filippo Manfrin Arzignano Activo 106 / 99 40% 2 30.04.2027 -
Davide Mastrantonio Latina Activo 91 / 92 40% 1 30.04.2027 -
Oleksandr Saputin Poltava Activo 113 / 128 40% 1 30.04.2027 -
Kevin Fulham Activo 145 / 162 40% 3 28.04.2027 -
Tom Fellows Southampton Activo 130 / 134 40% 6 28.04.2027 -
Mikkel Damsgaard Brentford Activo 147 / 132 40% 3 28.04.2027 -
Giacomo Raspadori Atalanta Activo 153 / 138 40% 2 28.04.2027 -
Egil Selvik Watford Activo 126 / 124 40% 1 28.04.2027 -
Isaac Price West Bromwich Albion Activo 125 / 141 40% 1 28.04.2027 -
Ali Ahmed Norwich City Activo 117 / 130 40% 3 23.04.2027 -
Jack McGlynn Stoke City Activo 135 / 131 40% 1 23.04.2027 -
Marco Asensio Fenerbahce Activo 165 / 168 40% 5 22.04.2027 -
Carlos Alcaraz Everton Activo 148 / 143 40% 2 22.04.2027 -
Felix Kyei Medeama Activo 89 / 84 40% 2 22.04.2027 -
Valerio Boffelli Cavese Activo 98 / 107 40% 2 22.04.2027 -
Facundo Vila Estudiantes Activo 101 / 99 40% 1 21.04.2027 -
Assane Diao Lazio Activo 139 / 146 40% 2 19.04.2027 -
Scott Twine Bristol City Activo 132 / 114 40% 2 18.04.2027 -
Jack Rudoni Coventry City Activo 128 / 130 40% 1 18.04.2027 -
Isaiah Jones Luton Town Activo 127 / 130 40% 4 17.04.2027 -
Nordi Mukiele Sunderland Activo 152 / 140 40% 1 16.04.2027 -
Ianis Hagi Alanyaspor Activo 125 / 113 40% 1 15.04.2027 -
Zian Flemming Ipswich Town Activo 130 / 138 40% 1 14.04.2027 -
James Trafford Leeds United Activo 150 / 145 40% 2 12.04.2027 -
Kiernan Dewsbury-Hall Everton Activo 144 / 151 40% 1 12.04.2027 -
Alexander Nübel Besiktas Activo 141 / 144 40% 1 12.04.2027 -
Ortwin De Wolf KV Mechelen Activo 122 / 106 40% 1 11.04.2027 -
Deniz Ertaş Konyaspor Activo 116 / 135 40% 1 11.04.2027 -
Adrien Truffert Bournemouth Activo 158 / 140 40% 2 10.04.2027 -
Mats Wieffer Brighton Activo 156 / 161 40% 1 08.04.2027 -
Leroy Sané Galatasaray Activo 160 / 161 40% 4 04.04.2027 -
Sorba Thomas Stoke City Activo 140 / 120 40% 3 03.04.2027 -
Carlos Vicente Birmingham Activo 139 / 139 40% 3 02.04.2027 -
Finn Azaz Southampton Activo 131 / 134 40% 2 01.04.2027 -
Léo Scienza Southampton Activo 133 / 151 40% 2 31.03.2027 -
Kwame Poku Queens Park Rangers Activo 120 / 118 40% 3 31.03.2027 -
Wladimiro Falcone Lecce Activo 142 / 131 40% 4 31.03.2027 -
Dean Henderson Crystal Palace Activo 144 / 138 40% 1 31.03.2027 -
Nikita Haikin Standard Liege Activo 132 / 142 40% 1 30.03.2027 -
Adam Wharton Crystal Palace Activo 159 / 153 40% 2 27.03.2027 -
Nicolò Cambiaghi Bologna Activo 144 / 134 40% 1 27.03.2027 -
David Brooks Bournemouth Activo 142 / 138 40% 2 25.03.2027 -
Georges-Kévin Nkoudou Al-Diriyah Activo 128 / 130 40% 1 25.03.2027 -
Ryan Sessegnon Fulham Activo 141 / 148 40% 1 24.03.2027 -
Manor Solomon West Ham United Activo 139 / 150 40% 1 24.03.2027 -
Stanley Mills Oxford United Activo 116 / 129 40% 2 21.03.2027 -
Félix Lemaréchal Club Brugge Activo 141 / 143 40% 5 21.03.2027 -
Georginio Rutter Brighton Activo 142 / 135 40% 4 20.03.2027 -
Marko Ilić Westerlo Activo 122 / 129 40% 2 19.03.2027 -
Max O'Leary West Bromwich Albion Activo 122 / 138 40% 1 19.03.2027 -
Othmane Maamma Watford Activo 127 / 142 40% 3 18.03.2027 -
Kyrylo Fesiun Shakhtar Activo 116 / 137 40% 2 17.03.2027 -
Alex Meret Napoli Activo 162 / 165 40% 1 16.03.2027 -
Santiago Silva CFR Cluj Activo 117 / 119 40% 1 16.03.2027 -
Yusuke Matsuo Esteghlal Activo 121 / 111 40% 4 13.03.2027 -
Borja Sainz Fiorentina Activo 155 / 141 40% 3 13.03.2027 -
Eduardo Armenta Ufa Activo 99 / 91 40% 1 12.03.2027 -
Radek Vítek Middlesbrough Activo 129 / 131 40% 2 09.03.2027 -
Jamie Cumming Oxford United Activo 132 / 113 40% 1 08.03.2027 -
Leon Bailey Olympiacos Activo 151 / 129 40% 4 05.03.2027 -
Max Bird Birmingham Activo 127 / 118 40% 1 04.03.2027 -
Jan Koutný Sigma Olomouc Activo 112 / 116 40% 1 02.03.2027 -
Fedor Lapoukhov CSKA Sofia Activo 124 / 130 40% 1 02.03.2027 -
Mduduzi Shabalala Kaizer Chiefs Activo 116 / 100 40% 2 25.02.2027 -
Adriano Bertaccini Anderlecht Activo 123 / 108 40% 1 25.02.2027 -
Juan David Guillén Real Santander Activo 94 / 99 52% 1 / 1m 24.02.2027 -
Marquinhos Spartak Moscow Activo 135 / 143 40% 6 23.02.2027 -
Matt O'Riley Brighton Activo 152 / 156 40% 2 22.02.2027 -
Marcelo Allende Mamelodi Sundowns Activo 128 / 130 40% 6 16.02.2027 -
Tyrese Campbell Sheffield United Activo 136 / 124 40% 1 16.02.2027 -
Bertrand Traoré Sunderland Activo 136 / 136 40% 2 14.02.2027 -
Beau Reus Waasland-Beveren Activo 133 / 128 40% 1 14.02.2027 -
Óscar Mingueza Crystal Palace Activo 147 / 158 40% 1 11.02.2027 -
Zack Steffen Spartak Moscow Activo 126 / 128 40% 1 10.02.2027 -
Maílson Al-Taawoun Activo 133 / 114 40% 1 10.02.2027 -
Nahuel Ulariaga Hapoel Beer Sheva Activo 125 / 109 40% 3 06.02.2027 -
Tshepang Moremi Orlando Pirates Activo 116 / 124 40% 3 06.02.2027 -
Oston O'runov Persepolis Activo 127 / 132 40% 1 06.02.2027 -
Jhon Jhon Zenit Activo 129 / 137 40% 1 04.02.2027 -
Nicolas Schmid Portsmouth Activo 129 / 136 40% 1 04.02.2027 -
Michael Cooper Sheffield United Activo 130 / 125 40% 1 02.02.2027 -
Hélio Varela Maccabi Tel Aviv Activo 121 / 114 40% 1 02.02.2027 -
Callum Hudson-Odoi Nottingham Forest Activo 156 / 149 40% 1 24.01.2027 -
Ilias Sebaoui Sint-Truiden Activo 127 / 140 40% 1 24.01.2027 -
Oswin Appollis Orlando Pirates Activo 119 / 113 40% 1 22.01.2027 -
Filip Marschall Stevenage Activo 118 / 120 40% 1 22.01.2027 -
Francesco D'Alterio Ternana Activo 111 / 123 40% 1 22.01.2027 -
Mykyta Turbaievskyi Zorya Activo 109 / 125 40% 1 22.01.2027 -
Cesare Galeotti Trapani Activo 105 / 122 40% 1 21.01.2027 -
Tomáš Ladra Viktoria Plzen Activo 118 / 111 40% 1 19.01.2027 -
Kenny Tete Fulham Activo 150 / 130 40% 1 19.01.2027 -
Rubén Duarte Legia Activo 130 / 129 40% 2 16.01.2027 -
Louie Barry Sheffield Wednesday Activo 115 / 116 40% 1 16.01.2027 -
Sayfallah Ltaief Cracovia Activo 121 / 120 40% 1 16.01.2027 -
Ilias Chair Queens Park Rangers Activo 125 / 129 40% 1 14.01.2027 -
Christian Nørgaard Everton Activo 139 / 137 40% 1 10.01.2027 -
Mauro Arambarri River Plate Activo 156 / 154 40% 1 06.01.2027 -
Heorhii Yermakov Metalist Activo 109 / 131 40% 1 05.01.2027 -
Juan Pablo Gallego Dibba Activo 108 / 104 40% 2 03.01.2027 -
Tiago Palacios Estudiantes Activo 125 / 129 40% 2 02.01.2027 -
Alan Lescano Argentinos Juniors Activo 133 / 136 40% 2 01.01.2027 -
Juergen Elitím Bohemians 1905 Activo 115 / 125 40% 3 01.01.2027 -
Christian Krasnodar Activo 128 / 133 40% 1 30.12.2026 -
Víctor Ríos Atlas Activo 111 / 109 40% 1 26.12.2026 -
Aarón Molinas Defensa y Justicia Activo 129 / 135 40% 2 25.12.2026 -
Joaquín Gho Argentinos Juniors Activo 126 / 133 40% 3 25.12.2026 -
Aimé Omgba KAA Gent Activo 131 / 127 40% 1 25.12.2026 -
Cian Ashford Cardiff City Activo 120 / 114 40% 1 23.12.2026 -
Ramiro Ruiz Rodríguez Atlético Tucumán Activo 117 / 120 40% 10 22.12.2026 -
Jack Diamond Stockport County Activo 127 / 106 40% 1 21.12.2026 -
Williams Manyama SuperSport United Activo 119 / 114 40% 1 02.12.2026 -
Rodrigo Bogarín Barracas Central Activo 116 / 111 40% 2 28.11.2026 -
Jhonatan Candia Barracas Central Activo 121 / 114 40% 4 28.11.2026 -
Luciano Gondou CSKA Moscow Activo 139 / 127 40% 1 28.11.2026 -
Lorent Tolaj Plymouth Argyle Activo 112 / 121 40% 1 28.11.2026 -
Matías Zaracho Racing Club Activo 121 / 135 40% 1 28.11.2026 -
Marcelino Moreno Lanús Activo 129 / 135 40% 1 27.11.2026 -
Felipe Peña Biafore Lanús Activo 122 / 135 40% 1 27.11.2026 -
Gustavo Del Prete San Lorenzo Activo 117 / 126 40% 3 26.11.2026 -
Ammar Ramadan DAC Dunajska Streda Activo 128 / 133 40% 1 26.11.2026 -
Moussa Dembélé CR Belouizdad Activo 137 / 120 40% 1 26.11.2026 -
Bamba Dieng Crvena Zvezda Activo 137 / 116 40% 1 23.11.2026 -
Manfred Ugalde Spartak Moscow Activo 138 / 122 40% 1 23.11.2026 -
Edwuin Cetré Estudiantes Activo 123 / 126 40% 1 22.11.2026 -
Diego Rossi Monterrey Activo 140 / 143 40% 10 21.11.2026 -
Alexis Cuello San Lorenzo Activo 122 / 131 40% 3 19.11.2026 -
Efraín Álvarez Guadalajara Activo 133 / 137 40% 4 18.11.2026 -
Antony Alonso Deportivo Riestra Activo 126 / 130 40% 3 17.11.2026 -
Mourad Tijuana Activo 123 / 114 40% 3 16.11.2026 -
Francisco González Metilli Belgrano Activo 123 / 118 40% 2 16.11.2026 -
Adonis Preciado Tijuana Activo 123 / 116 40% 1 16.11.2026 -
Ozziel Herrera Tigres Activo 129 / 123 40% 6 14.11.2026 -
Tomás González Piast Activo 121 / 114 40% 1 14.11.2026 -
Brian Rodríguez Club America Activo 124 / 130 40% 1 13.11.2026 -
Alejandro Zendejas Club America Activo 136 / 133 40% 2 10.11.2026 -
Jordi Cortizo Leon Activo 123 / 123 40% 2 10.11.2026 -
Jesús Ricardo Angulo Toluca Activo 134 / 134 40% 1 10.11.2026 -
Alejandro Melo Cibalia Activo 119 / 119 40% 1 10.11.2026 -
Nicolás Cordero Aldosivi Activo 118 / 111 40% 2 09.11.2026 -
Ricardo Marín Guadalajara Activo 121 / 117 40% 4 07.11.2026 -
Matko Miljevic Racing Club Activo 123 / 137 40% 2 07.11.2026 -
Carlos Rodríguez Cruz Azul Activo 131 / 133 40% 1 07.11.2026 -
Tomás Conechny Racing Club Activo 129 / 132 40% 2 05.11.2026 -
Yousef Salech Cardiff City Activo 116 / 117 40% 1 05.11.2026 -
Nicolás Castro Toluca Activo 125 / 134 40% 1 04.11.2026 -
Adalberto Carrasquilla Pumas UNAM Activo 129 / 133 40% 2 03.11.2026 -
Ezequiel Bullaude Santos Laguna Activo 125 / 128 40% 1 03.11.2026 -
Santiago Rodríguez Gimnasia y Esgrima Activo 124 / 122 40% 2 01.11.2026 -
Ulises Sánchez Gimnasia y Esgrima Activo 129 / 131 40% 1 01.11.2026 -
Orbelín Pineda Monterrey Activo 145 / 138 40% 1 01.11.2026 -
Rodrigo Echeverría Leon Activo 128 / 133 40% 1 30.10.2026 -
Adnan Courtois KV Oostende Activo 137 / 120 40% 2 28.10.2026 -
Enzo Copetti Rosario Central Activo 128 / 124 40% 1 27.10.2026 -
Agustín Módica Gimnasia y Esgrima Activo 118 / 129 40% 3 25.10.2026 -
Luca Martínez Dupuy Godoy Cruz Activo 119 / 119 40% 1 23.10.2026 -
Bénie Traoré New York City Activo 127 / 116 40% 4 22.10.2026 -
Santiago Montiel Independiente Activo 128 / 120 40% 3 22.10.2026 -
Luís Esteves Atlas Activo 125 / 121 40% 1 22.10.2026 -
Emanuel Coronel Rosario Central Activo 130 / 134 40% 1 22.10.2026 -
Brian Gutiérrez Guadalajara Activo 133 / 132 40% 1 22.10.2026 -
Gonzalo Ríos Independiente Rivadavia Activo 115 / 128 40% 1 15.10.2026 -
Jaminton Campaz Rosario Central Activo 131 / 130 40% 1 13.10.2026 -
Mauro Valiente Estudiantes Activo 108 / 107 40% 1 12.10.2026 -
Tomás Molina Argentinos Juniors Activo 129 / 120 40% 2 10.10.2026 -
Martín Ortega Newell's Old Boys Activo 122 / 113 40% 1 10.10.2026 -
Juan Rocca Gimnasia y Tiro Activo 106 / 104 40% 1 10.10.2026 -
David Barbona Defensa y Justicia Activo 120 / 113 40% 1 10.10.2026 -
Ismael Díaz Leon Activo 127 / 119 40% 4 09.10.2026 -
Rodrigo González Mitre Activo 110 / 109 40% 1 08.10.2026 -
Alexander Díaz Deportivo Riestra Activo 123 / 119 40% 1 02.10.2026 -
Ignacio Ramírez Newell's Old Boys Activo 119 / 125 40% 1 01.10.2026 -
Gabriel Jesus Barcelona Activo 150 / 157 40% 3 29.09.2026 -
Leandro Suhr Boston River Activo 121 / 118 40% 1 29.09.2026 -
Luciano Cosentino Wanderers Activo 117 / 112 40% 4 27.09.2026 -
Juninho Pumas UNAM Activo 129 / 137 40% 4 26.09.2026 -
Hugo Cuypers Monterrey Activo 131 / 123 40% 4 23.09.2026 -
Dejan Joveljić Seattle Sounders Activo 124 / 134 40% 1 23.09.2026 -
Diego Gaitán Maipú Activo 113 / 105 40% 1 23.09.2026 -
Leandro Lozano Boca Juniors Activo 127 / 129 40% 1 23.09.2026 -
Alejo Cruz Juventud Activo 124 / 127 40% 1 21.09.2026 -
Siro Rosané Estudiantes Activo 117 / 121 40% 1 19.09.2026 -
Nazareno Colombo Racing Club Activo 124 / 130 40% 1 19.09.2026 -
Facundo Batista Penarol Activo 117 / 117 40% 1 17.09.2026 -
Agustín Paz Progreso Activo 112 / 115 40% 1 17.09.2026 -
Wessam Abou Ali Columbus Crew Activo 131 / 126 40% 1 17.09.2026 -
Duncan McGuire Houston Dynamo Activo 130 / 129 40% 4 15.09.2026 -
Josh Sargent Toronto FC Activo 129 / 134 40% 2 13.09.2026 -
Louis Munteanu DC United Activo 130 / 119 40% 2 12.09.2026 -
Kévin Denkey FC Cincinnati Activo 128 / 136 40% 2 06.09.2026 -
Jordan Morris Seattle Sounders Activo 125 / 133 40% 1 04.09.2026 -
Cheikh Sabaly Vancouver Whitecaps Activo 118 / 127 40% 1 03.09.2026 -
Breel Embolo Atlanta United FC Activo 134 / 144 40% 1 03.09.2026 -
Theo Corbeanu Toronto FC Activo 118 / 117 40% 1 28.08.2026 -
Marcus Ingvartsen San Diego Football Club Activo 128 / 127 40% 2 23.08.2026 -
Federico Girotti Alianza Lima Activo 122 / 114 40% 3 19.08.2026 -
Jesus Ferreira Seattle Sounders Activo 124 / 129 40% 1 15.08.2026 -
Harold Santiago Mosquera Cerro Porteno Activo 121 / 123 40% 1 14.08.2026 -
Juan Diego Jaramillo Depor Activo 102 / 102 30% 1 / 1m 12.08.2026 -
Juan Diego Mendoza Real Santander Activo 80 / 85 30% 1 / 1m 12.08.2026 -
João Klauss LA Galaxy Activo 120 / 132 40% 1 09.08.2026 -
Rodrigo Aguirre Tigres Activo 125 / 129 40% 1 07.08.2026 -
Lucas Souto Defensa y Justicia Activo 124 / 115 40% 1 07.08.2026 -
Ricardo Chávez Monterrey Activo 132 / 124 40% 1 07.08.2026 -
Federico Ricca Belgrano Activo 123 / 127 40% 1 07.08.2026 -
Matías Espinoza Libertad Activo 120 / 114 40% 1 06.08.2026 -
Salvador Reyes Leon Activo 122 / 121 40% 1 06.08.2026 -
Sam Surridge Nashville SC Activo 128 / 132 40% 1 05.08.2026 -
Álvaro Angulo Pumas UNAM Activo 125 / 115 40% 1 03.08.2026 -
Jhohan Romaña Leon Activo 127 / 127 40% 1 03.08.2026 -
Alejo Miro Patronato Activo 93 / 92 40% 1 02.08.2026 -
Urko Izeta Cádiz Activo 136 / 134 40% 1 01.08.2026 -
Eryc Castillo Alianza Lima Activo 114 / 120 40% 1 01.08.2026 -